sensor_id;sensor_type;location;lat;lon;timestamp;P1;durP1;ratioP1;P2;durP2;ratioP2
43529;SDS011;55654;50.966;6.878;2023-08-06T00:01:05;5.53;;;3.90;;
43529;SDS011;55654;50.966;6.878;2023-08-06T00:03:31;7.63;;;3.47;;
43529;SDS011;55654;50.966;6.878;2023-08-06T00:05:57;7.75;;;3.83;;
43529;SDS011;55654;50.966;6.878;2023-08-06T00:08:23;4.40;;;3.90;;
43529;SDS011;55654;50.966;6.878;2023-08-06T00:10:49;5.18;;;3.47;;
43529;SDS011;55654;50.966;6.878;2023-08-06T00:13:15;4.72;;;3.17;;
43529;SDS011;55654;50.966;6.878;2023-08-06T00:15:41;5.85;;;3.58;;
43529;SDS011;55654;50.966;6.878;2023-08-06T00:18:07;7.13;;;3.38;;
43529;SDS011;55654;50.966;6.878;2023-08-06T00:20:33;5.35;;;2.70;;
43529;SDS011;55654;50.966;6.878;2023-08-06T00:22:59;11.25;;;3.10;;
43529;SDS011;55654;50.966;6.878;2023-08-06T00:25:25;7.13;;;2.72;;
43529;SDS011;55654;50.966;6.878;2023-08-06T00:27:51;17.08;;;3.47;;
43529;SDS011;55654;50.966;6.878;2023-08-06T00:30:17;5.03;;;2.75;;
43529;SDS011;55654;50.966;6.878;2023-08-06T00:32:43;8.68;;;2.90;;
43529;SDS011;55654;50.966;6.878;2023-08-06T00:35:10;4.50;;;2.80;;
43529;SDS011;55654;50.966;6.878;2023-08-06T00:37:38;4.18;;;2.80;;
43529;SDS011;55654;50.966;6.878;2023-08-06T00:40:05;8.85;;;3.20;;
43529;SDS011;55654;50.966;6.878;2023-08-06T00:42:31;5.63;;;3.22;;
43529;SDS011;55654;50.966;6.878;2023-08-06T00:44:57;4.82;;;3.00;;
43529;SDS011;55654;50.966;6.878;2023-08-06T00:47:23;4.75;;;2.92;;
43529;SDS011;55654;50.966;6.878;2023-08-06T00:49:52;5.53;;;3.20;;
43529;SDS011;55654;50.966;6.878;2023-08-06T00:52:18;7.38;;;2.97;;
43529;SDS011;55654;50.966;6.878;2023-08-06T00:54:44;6.15;;;3.20;;
43529;SDS011;55654;50.966;6.878;2023-08-06T00:57:10;4.60;;;3.10;;
43529;SDS011;55654;50.966;6.878;2023-08-06T00:59:37;7.63;;;3.28;;
43529;SDS011;55654;50.966;6.878;2023-08-06T01:02:03;3.50;;;3.17;;
43529;SDS011;55654;50.966;6.878;2023-08-06T01:04:29;10.15;;;3.53;;
43529;SDS011;55654;50.966;6.878;2023-08-06T01:09:33;4.97;;;3.22;;
43529;SDS011;55654;50.966;6.878;2023-08-06T01:17:17;7.18;;;3.15;;
43529;SDS011;55654;50.966;6.878;2023-08-06T01:19:43;7.80;;;3.22;;
43529;SDS011;55654;50.966;6.878;2023-08-06T01:22:15;4.45;;;3.10;;
43529;SDS011;55654;50.966;6.878;2023-08-06T01:24:41;7.85;;;3.13;;
43529;SDS011;55654;50.966;6.878;2023-08-06T01:27:11;5.32;;;3.22;;
43529;SDS011;55654;50.966;6.878;2023-08-06T01:29:47;5.25;;;3.50;;
43529;SDS011;55654;50.966;6.878;2023-08-06T01:32:14;8.80;;;3.50;;
43529;SDS011;55654;50.966;6.878;2023-08-06T01:34:41;7.93;;;3.28;;
43529;SDS011;55654;50.966;6.878;2023-08-06T01:37:12;7.43;;;3.40;;
43529;SDS011;55654;50.966;6.878;2023-08-06T01:39:39;5.25;;;3.30;;
43529;SDS011;55654;50.966;6.878;2023-08-06T01:42:08;3.97;;;2.70;;
43529;SDS011;55654;50.966;6.878;2023-08-06T01:44:34;12.98;;;3.45;;
43529;SDS011;55654;50.966;6.878;2023-08-06T01:47:00;4.75;;;3.05;;
43529;SDS011;55654;50.966;6.878;2023-08-06T01:49:26;5.68;;;2.78;;
43529;SDS011;55654;50.966;6.878;2023-08-06T01:51:52;4.68;;;3.47;;
43529;SDS011;55654;50.966;6.878;2023-08-06T01:54:18;6.68;;;2.92;;
43529;SDS011;55654;50.966;6.878;2023-08-06T01:56:44;6.93;;;3.25;;
43529;SDS011;55654;50.966;6.878;2023-08-06T01:59:10;5.80;;;3.30;;
43529;SDS011;55654;50.966;6.878;2023-08-06T02:01:36;6.72;;;3.08;;
43529;SDS011;55654;50.966;6.878;2023-08-06T02:04:02;3.80;;;2.53;;
43529;SDS011;55654;50.966;6.878;2023-08-06T02:06:28;5.25;;;3.25;;
43529;SDS011;55654;50.966;6.878;2023-08-06T02:08:57;6.93;;;2.95;;
43529;SDS011;55654;50.966;6.878;2023-08-06T02:11:23;11.93;;;3.60;;
43529;SDS011;55654;50.966;6.878;2023-08-06T02:13:49;6.65;;;3.22;;
43529;SDS011;55654;50.966;6.878;2023-08-06T02:16:15;3.92;;;3.00;;
43529;SDS011;55654;50.966;6.878;2023-08-06T02:18:41;6.38;;;3.45;;
43529;SDS011;55654;50.966;6.878;2023-08-06T02:21:07;5.15;;;3.20;;
43529;SDS011;55654;50.966;6.878;2023-08-06T02:23:33;5.10;;;3.70;;
43529;SDS011;55654;50.966;6.878;2023-08-06T02:26:03;6.70;;;2.95;;
43529;SDS011;55654;50.966;6.878;2023-08-06T02:28:30;5.75;;;3.17;;
43529;SDS011;55654;50.966;6.878;2023-08-06T02:30:56;5.93;;;3.47;;
43529;SDS011;55654;50.966;6.878;2023-08-06T02:33:22;5.07;;;3.55;;
43529;SDS011;55654;50.966;6.878;2023-08-06T02:35:48;11.75;;;3.35;;
43529;SDS011;55654;50.966;6.878;2023-08-06T02:38:14;4.53;;;3.65;;
43529;SDS011;55654;50.966;6.878;2023-08-06T02:40:44;8.60;;;3.45;;
43529;SDS011;55654;50.966;6.878;2023-08-06T02:43:10;5.35;;;3.03;;
43529;SDS011;55654;50.966;6.878;2023-08-06T02:45:36;6.13;;;3.42;;
43529;SDS011;55654;50.966;6.878;2023-08-06T02:48:02;5.28;;;3.45;;
43529;SDS011;55654;50.966;6.878;2023-08-06T02:50:28;8.88;;;3.70;;
43529;SDS011;55654;50.966;6.878;2023-08-06T02:52:54;3.28;;;2.80;;
43529;SDS011;55654;50.966;6.878;2023-08-06T02:55:20;4.05;;;2.88;;
43529;SDS011;55654;50.966;6.878;2023-08-06T02:57:46;5.35;;;2.47;;
43529;SDS011;55654;50.966;6.878;2023-08-06T03:00:12;4.97;;;2.70;;
43529;SDS011;55654;50.966;6.878;2023-08-06T03:02:38;5.57;;;2.75;;
43529;SDS011;55654;50.966;6.878;2023-08-06T03:05:04;7.30;;;2.70;;
43529;SDS011;55654;50.966;6.878;2023-08-06T03:07:31;5.47;;;2.92;;
43529;SDS011;55654;50.966;6.878;2023-08-06T03:09:59;7.60;;;2.63;;
43529;SDS011;55654;50.966;6.878;2023-08-06T03:12:27;6.78;;;3.05;;
43529;SDS011;55654;50.966;6.878;2023-08-06T03:14:53;8.02;;;3.40;;
43529;SDS011;55654;50.966;6.878;2023-08-06T03:17:19;4.88;;;2.80;;
43529;SDS011;55654;50.966;6.878;2023-08-06T03:19:48;3.72;;;3.05;;
43529;SDS011;55654;50.966;6.878;2023-08-06T03:22:14;5.53;;;3.03;;
43529;SDS011;55654;50.966;6.878;2023-08-06T03:24:40;6.72;;;4.43;;
43529;SDS011;55654;50.966;6.878;2023-08-06T03:27:06;11.90;;;3.28;;
43529;SDS011;55654;50.966;6.878;2023-08-06T03:29:32;4.78;;;2.85;;
43529;SDS011;55654;50.966;6.878;2023-08-06T03:31:58;4.35;;;3.00;;
43529;SDS011;55654;50.966;6.878;2023-08-06T03:34:24;4.68;;;3.22;;
43529;SDS011;55654;50.966;6.878;2023-08-06T03:36:50;5.88;;;3.30;;
43529;SDS011;55654;50.966;6.878;2023-08-06T03:39:16;7.18;;;3.65;;
43529;SDS011;55654;50.966;6.878;2023-08-06T03:41:42;7.63;;;3.67;;
43529;SDS011;55654;50.966;6.878;2023-08-06T03:44:08;6.40;;;3.45;;
43529;SDS011;55654;50.966;6.878;2023-08-06T03:46:34;7.30;;;3.28;;
43529;SDS011;55654;50.966;6.878;2023-08-06T03:49:00;6.30;;;3.35;;
43529;SDS011;55654;50.966;6.878;2023-08-06T03:51:26;7.18;;;3.78;;
43529;SDS011;55654;50.966;6.878;2023-08-06T03:53:52;6.00;;;3.55;;
43529;SDS011;55654;50.966;6.878;2023-08-06T03:56:18;6.05;;;3.85;;
43529;SDS011;55654;50.966;6.878;2023-08-06T03:58:45;6.25;;;3.50;;
43529;SDS011;55654;50.966;6.878;2023-08-06T04:01:11;10.95;;;4.25;;
43529;SDS011;55654;50.966;6.878;2023-08-06T04:03:37;6.05;;;3.75;;
43529;SDS011;55654;50.966;6.878;2023-08-06T04:06:03;6.78;;;3.70;;
43529;SDS011;55654;50.966;6.878;2023-08-06T04:08:29;7.55;;;4.00;;
43529;SDS011;55654;50.966;6.878;2023-08-06T04:10:55;8.73;;;4.03;;
43529;SDS011;55654;50.966;6.878;2023-08-06T04:13:21;10.43;;;4.65;;
43529;SDS011;55654;50.966;6.878;2023-08-06T04:15:47;9.75;;;5.13;;
43529;SDS011;55654;50.966;6.878;2023-08-06T04:18:13;12.52;;;5.07;;
43529;SDS011;55654;50.966;6.878;2023-08-06T04:20:46;10.27;;;5.03;;
43529;SDS011;55654;50.966;6.878;2023-08-06T04:23:14;15.23;;;6.30;;
43529;SDS011;55654;50.966;6.878;2023-08-06T04:25:43;14.05;;;5.90;;
43529;SDS011;55654;50.966;6.878;2023-08-06T04:28:09;12.27;;;6.93;;
43529;SDS011;55654;50.966;6.878;2023-08-06T04:30:36;14.57;;;5.97;;
43529;SDS011;55654;50.966;6.878;2023-08-06T04:33:06;14.27;;;6.05;;
43529;SDS011;55654;50.966;6.878;2023-08-06T04:35:32;10.00;;;5.60;;
43529;SDS011;55654;50.966;6.878;2023-08-06T04:37:58;11.32;;;5.55;;
43529;SDS011;55654;50.966;6.878;2023-08-06T04:40:24;15.95;;;6.18;;
43529;SDS011;55654;50.966;6.878;2023-08-06T04:42:50;11.18;;;5.75;;
43529;SDS011;55654;50.966;6.878;2023-08-06T04:45:16;12.35;;;5.90;;
43529;SDS011;55654;50.966;6.878;2023-08-06T04:47:45;15.00;;;6.65;;
43529;SDS011;55654;50.966;6.878;2023-08-06T04:50:11;16.58;;;5.75;;
43529;SDS011;55654;50.966;6.878;2023-08-06T04:52:37;13.57;;;5.57;;
43529;SDS011;55654;50.966;6.878;2023-08-06T04:55:03;17.13;;;6.45;;
43529;SDS011;55654;50.966;6.878;2023-08-06T04:57:31;14.10;;;5.72;;
43529;SDS011;55654;50.966;6.878;2023-08-06T04:59:57;10.38;;;5.13;;
43529;SDS011;55654;50.966;6.878;2023-08-06T05:02:23;16.52;;;6.07;;
43529;SDS011;55654;50.966;6.878;2023-08-06T05:04:49;12.73;;;6.00;;
43529;SDS011;55654;50.966;6.878;2023-08-06T05:07:15;10.55;;;5.05;;
43529;SDS011;55654;50.966;6.878;2023-08-06T05:09:41;13.73;;;5.35;;
43529;SDS011;55654;50.966;6.878;2023-08-06T05:12:07;13.98;;;6.10;;
43529;SDS011;55654;50.966;6.878;2023-08-06T05:14:33;12.80;;;6.22;;
43529;SDS011;55654;50.966;6.878;2023-08-06T05:16:59;14.50;;;5.47;;
43529;SDS011;55654;50.966;6.878;2023-08-06T05:19:27;12.85;;;6.53;;
43529;SDS011;55654;50.966;6.878;2023-08-06T05:21:53;11.63;;;6.00;;
43529;SDS011;55654;50.966;6.878;2023-08-06T05:24:19;13.20;;;5.93;;
43529;SDS011;55654;50.966;6.878;2023-08-06T05:26:45;9.57;;;6.05;;
43529;SDS011;55654;50.966;6.878;2023-08-06T05:29:16;12.75;;;6.00;;
43529;SDS011;55654;50.966;6.878;2023-08-06T05:31:42;10.82;;;5.90;;
43529;SDS011;55654;50.966;6.878;2023-08-06T05:34:08;11.95;;;6.18;;
43529;SDS011;55654;50.966;6.878;2023-08-06T05:36:34;12.90;;;6.03;;
43529;SDS011;55654;50.966;6.878;2023-08-06T05:39:00;12.75;;;6.32;;
43529;SDS011;55654;50.966;6.878;2023-08-06T05:41:26;13.30;;;5.88;;
43529;SDS011;55654;50.966;6.878;2023-08-06T05:43:52;8.75;;;5.65;;
43529;SDS011;55654;50.966;6.878;2023-08-06T05:46:18;9.10;;;5.38;;
43529;SDS011;55654;50.966;6.878;2023-08-06T05:48:44;10.60;;;5.80;;
43529;SDS011;55654;50.966;6.878;2023-08-06T05:51:10;9.35;;;5.07;;
43529;SDS011;55654;50.966;6.878;2023-08-06T05:53:38;9.60;;;5.20;;
43529;SDS011;55654;50.966;6.878;2023-08-06T05:56:04;10.90;;;5.30;;
43529;SDS011;55654;50.966;6.878;2023-08-06T05:58:33;7.55;;;4.75;;
43529;SDS011;55654;50.966;6.878;2023-08-06T06:00:59;12.48;;;5.32;;
43529;SDS011;55654;50.966;6.878;2023-08-06T06:03:25;6.97;;;4.25;;
43529;SDS011;55654;50.966;6.878;2023-08-06T06:05:53;9.32;;;4.70;;
43529;SDS011;55654;50.966;6.878;2023-08-06T06:08:19;7.90;;;5.00;;
43529;SDS011;55654;50.966;6.878;2023-08-06T06:10:45;11.10;;;4.55;;
43529;SDS011;55654;50.966;6.878;2023-08-06T06:13:11;6.85;;;4.00;;
43529;SDS011;55654;50.966;6.878;2023-08-06T06:15:38;10.57;;;4.20;;
43529;SDS011;55654;50.966;6.878;2023-08-06T06:18:04;6.55;;;4.32;;
43529;SDS011;55654;50.966;6.878;2023-08-06T06:20:31;7.40;;;4.72;;
43529;SDS011;55654;50.966;6.878;2023-08-06T06:22:58;7.28;;;4.40;;
43529;SDS011;55654;50.966;6.878;2023-08-06T06:25:24;7.80;;;4.60;;
43529;SDS011;55654;50.966;6.878;2023-08-06T06:27:50;9.02;;;4.97;;
43529;SDS011;55654;50.966;6.878;2023-08-06T06:30:16;8.35;;;4.55;;
43529;SDS011;55654;50.966;6.878;2023-08-06T06:32:42;13.75;;;4.32;;
43529;SDS011;55654;50.966;6.878;2023-08-06T06:35:08;8.15;;;4.10;;
43529;SDS011;55654;50.966;6.878;2023-08-06T06:37:34;8.27;;;4.32;;
43529;SDS011;55654;50.966;6.878;2023-08-06T06:40:00;13.32;;;6.82;;
43529;SDS011;55654;50.966;6.878;2023-08-06T06:42:26;8.98;;;4.93;;
43529;SDS011;55654;50.966;6.878;2023-08-06T06:44:52;9.18;;;5.15;;
43529;SDS011;55654;50.966;6.878;2023-08-06T06:47:18;11.63;;;5.63;;
43529;SDS011;55654;50.966;6.878;2023-08-06T06:49:44;8.63;;;5.38;;
43529;SDS011;55654;50.966;6.878;2023-08-06T06:52:10;8.82;;;5.18;;
43529;SDS011;55654;50.966;6.878;2023-08-06T06:54:36;5.57;;;3.30;;
43529;SDS011;55654;50.966;6.878;2023-08-06T06:57:02;5.88;;;2.22;;
43529;SDS011;55654;50.966;6.878;2023-08-06T06:59:29;6.25;;;1.88;;
43529;SDS011;55654;50.966;6.878;2023-08-06T07:01:55;6.18;;;2.10;;
43529;SDS011;55654;50.966;6.878;2023-08-06T07:04:21;3.85;;;1.77;;
43529;SDS011;55654;50.966;6.878;2023-08-06T07:06:47;2.50;;;1.63;;
43529;SDS011;55654;50.966;6.878;2023-08-06T07:09:13;3.55;;;1.67;;
43529;SDS011;55654;50.966;6.878;2023-08-06T07:11:39;5.10;;;1.50;;
43529;SDS011;55654;50.966;6.878;2023-08-06T07:14:08;2.78;;;2.15;;
43529;SDS011;55654;50.966;6.878;2023-08-06T07:16:34;4.10;;;1.85;;
43529;SDS011;55654;50.966;6.878;2023-08-06T07:19:00;3.95;;;1.92;;
43529;SDS011;55654;50.966;6.878;2023-08-06T07:21:26;3.17;;;1.60;;
43529;SDS011;55654;50.966;6.878;2023-08-06T07:23:52;2.97;;;1.70;;
43529;SDS011;55654;50.966;6.878;2023-08-06T07:26:19;4.13;;;1.75;;
43529;SDS011;55654;50.966;6.878;2023-08-06T07:28:45;2.42;;;1.83;;
43529;SDS011;55654;50.966;6.878;2023-08-06T07:31:11;3.83;;;1.70;;
43529;SDS011;55654;50.966;6.878;2023-08-06T07:33:41;3.03;;;1.70;;
43529;SDS011;55654;50.966;6.878;2023-08-06T07:36:07;6.82;;;1.88;;
43529;SDS011;55654;50.966;6.878;2023-08-06T07:38:33;7.13;;;2.10;;
43529;SDS011;55654;50.966;6.878;2023-08-06T07:41:01;3.03;;;1.48;;
43529;SDS011;55654;50.966;6.878;2023-08-06T07:43:27;4.43;;;1.65;;
43529;SDS011;55654;50.966;6.878;2023-08-06T07:45:53;2.28;;;1.50;;
43529;SDS011;55654;50.966;6.878;2023-08-06T07:48:19;1.70;;;1.40;;
43529;SDS011;55654;50.966;6.878;2023-08-06T07:50:45;1.60;;;1.35;;
43529;SDS011;55654;50.966;6.878;2023-08-06T07:53:15;2.55;;;1.67;;
43529;SDS011;55654;50.966;6.878;2023-08-06T07:55:41;3.63;;;1.70;;
43529;SDS011;55654;50.966;6.878;2023-08-06T07:58:07;2.63;;;1.65;;
43529;SDS011;55654;50.966;6.878;2023-08-06T08:00:33;1.77;;;1.52;;
43529;SDS011;55654;50.966;6.878;2023-08-06T08:02:59;1.75;;;1.33;;
43529;SDS011;55654;50.966;6.878;2023-08-06T08:05:25;3.03;;;1.60;;
43529;SDS011;55654;50.966;6.878;2023-08-06T08:07:51;2.53;;;2.03;;
43529;SDS011;55654;50.966;6.878;2023-08-06T08:10:17;1.52;;;1.20;;
43529;SDS011;55654;50.966;6.878;2023-08-06T08:12:43;0.73;;;0.68;;
43529;SDS011;55654;50.966;6.878;2023-08-06T08:15:12;2.70;;;0.70;;
43529;SDS011;55654;50.966;6.878;2023-08-06T08:17:38;3.70;;;0.90;;
43529;SDS011;55654;50.966;6.878;2023-08-06T08:20:04;1.13;;;0.90;;
43529;SDS011;55654;50.966;6.878;2023-08-06T08:22:31;1.23;;;0.75;;
43529;SDS011;55654;50.966;6.878;2023-08-06T08:24:57;1.13;;;1.02;;
43529;SDS011;55654;50.966;6.878;2023-08-06T08:27:23;1.70;;;1.60;;
43529;SDS011;55654;50.966;6.878;2023-08-06T08:29:49;2.10;;;1.50;;
43529;SDS011;55654;50.966;6.878;2023-08-06T08:32:15;1.13;;;0.90;;
43529;SDS011;55654;50.966;6.878;2023-08-06T08:34:41;2.10;;;1.30;;
43529;SDS011;55654;50.966;6.878;2023-08-06T08:37:07;1.65;;;1.00;;
43529;SDS011;55654;50.966;6.878;2023-08-06T08:39:33;1.10;;;0.90;;
43529;SDS011;55654;50.966;6.878;2023-08-06T08:41:59;2.75;;;1.30;;
43529;SDS011;55654;50.966;6.878;2023-08-06T08:44:26;1.20;;;1.02;;
43529;SDS011;55654;50.966;6.878;2023-08-06T08:46:54;1.55;;;1.08;;
43529;SDS011;55654;50.966;6.878;2023-08-06T08:49:21;1.50;;;1.30;;
43529;SDS011;55654;50.966;6.878;2023-08-06T08:51:47;2.05;;;0.90;;
43529;SDS011;55654;50.966;6.878;2023-08-06T08:54:14;1.73;;;1.00;;
43529;SDS011;55654;50.966;6.878;2023-08-06T08:56:41;1.75;;;1.10;;
43529;SDS011;55654;50.966;6.878;2023-08-06T08:59:07;3.63;;;1.58;;
43529;SDS011;55654;50.966;6.878;2023-08-06T09:01:33;1.70;;;1.55;;
43529;SDS011;55654;50.966;6.878;2023-08-06T09:04:00;2.60;;;2.10;;
43529;SDS011;55654;50.966;6.878;2023-08-06T09:06:26;3.67;;;2.58;;
43529;SDS011;55654;50.966;6.878;2023-08-06T09:08:56;2.83;;;2.10;;
43529;SDS011;55654;50.966;6.878;2023-08-06T09:11:22;2.35;;;1.98;;
43529;SDS011;55654;50.966;6.878;2023-08-06T09:13:49;12.25;;;3.22;;
43529;SDS011;55654;50.966;6.878;2023-08-06T09:16:15;3.72;;;2.95;;
43529;SDS011;55654;50.966;6.878;2023-08-06T09:18:41;18.77;;;5.10;;
43529;SDS011;55654;50.966;6.878;2023-08-06T09:21:11;12.77;;;4.22;;
43529;SDS011;55654;50.966;6.878;2023-08-06T09:23:39;5.07;;;3.65;;
43529;SDS011;55654;50.966;6.878;2023-08-06T09:26:05;4.60;;;3.92;;
43529;SDS011;55654;50.966;6.878;2023-08-06T09:28:39;7.30;;;5.93;;
43529;SDS011;55654;50.966;6.878;2023-08-06T09:31:08;7.60;;;6.68;;
43529;SDS011;55654;50.966;6.878;2023-08-06T09:33:35;12.02;;;8.27;;
43529;SDS011;55654;50.966;6.878;2023-08-06T09:36:14;10.75;;;8.27;;
43529;SDS011;55654;50.966;6.878;2023-08-06T09:38:40;12.15;;;7.85;;
43529;SDS011;55654;50.966;6.878;2023-08-06T09:41:06;13.50;;;9.38;;
43529;SDS011;55654;50.966;6.878;2023-08-06T09:43:40;10.38;;;7.93;;
43529;SDS011;55654;50.966;6.878;2023-08-06T09:46:13;11.10;;;7.63;;
43529;SDS011;55654;50.966;6.878;2023-08-06T09:48:43;10.00;;;7.43;;
43529;SDS011;55654;50.966;6.878;2023-08-06T09:51:10;8.38;;;6.10;;
43529;SDS011;55654;50.966;6.878;2023-08-06T09:53:37;6.40;;;4.35;;
43529;SDS011;55654;50.966;6.878;2023-08-06T09:56:03;7.65;;;3.08;;
43529;SDS011;55654;50.966;6.878;2023-08-06T09:58:30;4.63;;;2.33;;
43529;SDS011;55654;50.966;6.878;2023-08-06T10:00:56;15.18;;;3.83;;
43529;SDS011;55654;50.966;6.878;2023-08-06T10:03:23;29.80;;;4.85;;
43529;SDS011;55654;50.966;6.878;2023-08-06T10:05:49;54.33;;;5.18;;
43529;SDS011;55654;50.966;6.878;2023-08-06T10:08:15;9.10;;;2.20;;
43529;SDS011;55654;50.966;6.878;2023-08-06T10:10:59;12.52;;;1.92;;
43529;SDS011;55654;50.966;6.878;2023-08-06T10:13:26;4.45;;;1.70;;
43529;SDS011;55654;50.966;6.878;2023-08-06T10:15:52;3.33;;;1.02;;
43529;SDS011;55654;50.966;6.878;2023-08-06T10:18:18;3.75;;;1.05;;
43529;SDS011;55654;50.966;6.878;2023-08-06T10:20:47;10.20;;;1.67;;
43529;SDS011;55654;50.966;6.878;2023-08-06T10:23:13;3.60;;;1.35;;
43529;SDS011;55654;50.966;6.878;2023-08-06T10:25:40;2.53;;;1.30;;
43529;SDS011;55654;50.966;6.878;2023-08-06T10:28:10;4.10;;;1.40;;
43529;SDS011;55654;50.966;6.878;2023-08-06T10:30:42;2.15;;;0.82;;
43529;SDS011;55654;50.966;6.878;2023-08-06T10:33:09;4.05;;;1.00;;
43529;SDS011;55654;50.966;6.878;2023-08-06T10:35:45;1.55;;;0.85;;
43529;SDS011;55654;50.966;6.878;2023-08-06T10:38:21;1.42;;;0.93;;
43529;SDS011;55654;50.966;6.878;2023-08-06T10:43:26;6.05;;;1.70;;
43529;SDS011;55654;50.966;6.878;2023-08-06T10:45:53;6.47;;;2.35;;
43529;SDS011;55654;50.966;6.878;2023-08-06T10:48:40;5.43;;;2.50;;
43529;SDS011;55654;50.966;6.878;2023-08-06T10:51:10;5.75;;;2.75;;
43529;SDS011;55654;50.966;6.878;2023-08-06T10:53:36;6.97;;;2.67;;
43529;SDS011;55654;50.966;6.878;2023-08-06T10:56:11;6.10;;;2.63;;
43529;SDS011;55654;50.966;6.878;2023-08-06T10:58:38;7.13;;;2.70;;
43529;SDS011;55654;50.966;6.878;2023-08-06T11:01:04;6.65;;;4.05;;
43529;SDS011;55654;50.966;6.878;2023-08-06T11:03:31;10.63;;;3.90;;
43529;SDS011;55654;50.966;6.878;2023-08-06T11:05:57;8.10;;;4.57;;
43529;SDS011;55654;50.966;6.878;2023-08-06T11:08:27;12.57;;;4.00;;
43529;SDS011;55654;50.966;6.878;2023-08-06T11:10:53;11.93;;;4.17;;
43529;SDS011;55654;50.966;6.878;2023-08-06T11:13:22;12.63;;;4.18;;
43529;SDS011;55654;50.966;6.878;2023-08-06T11:15:50;12.20;;;5.22;;
43529;SDS011;55654;50.966;6.878;2023-08-06T11:18:18;11.45;;;4.80;;
43529;SDS011;55654;50.966;6.878;2023-08-06T11:20:47;10.50;;;4.67;;
43529;SDS011;55654;50.966;6.878;2023-08-06T11:23:13;11.77;;;5.10;;
43529;SDS011;55654;50.966;6.878;2023-08-06T11:25:45;11.45;;;4.53;;
43529;SDS011;55654;50.966;6.878;2023-08-06T11:28:14;10.52;;;4.22;;
43529;SDS011;55654;50.966;6.878;2023-08-06T11:30:40;6.85;;;4.60;;
43529;SDS011;55654;50.966;6.878;2023-08-06T11:33:06;8.18;;;4.57;;
43529;SDS011;55654;50.966;6.878;2023-08-06T11:35:35;12.55;;;6.00;;
43529;SDS011;55654;50.966;6.878;2023-08-06T11:38:01;10.90;;;4.78;;
43529;SDS011;55654;50.966;6.878;2023-08-06T11:40:27;9.00;;;4.70;;
43529;SDS011;55654;50.966;6.878;2023-08-06T11:42:56;13.43;;;4.82;;
43529;SDS011;55654;50.966;6.878;2023-08-06T11:45:22;9.82;;;3.50;;
43529;SDS011;55654;50.966;6.878;2023-08-06T11:47:49;9.27;;;3.50;;
43529;SDS011;55654;50.966;6.878;2023-08-06T11:50:26;7.70;;;3.65;;
43529;SDS011;55654;50.966;6.878;2023-08-06T11:52:52;13.80;;;3.25;;
43529;SDS011;55654;50.966;6.878;2023-08-06T11:55:22;11.65;;;3.08;;
43529;SDS011;55654;50.966;6.878;2023-08-06T11:57:53;10.75;;;3.50;;
43529;SDS011;55654;50.966;6.878;2023-08-06T12:00:20;9.48;;;3.35;;
43529;SDS011;55654;50.966;6.878;2023-08-06T12:02:47;10.07;;;3.35;;
43529;SDS011;55654;50.966;6.878;2023-08-06T12:05:21;9.80;;;3.88;;
43529;SDS011;55654;50.966;6.878;2023-08-06T12:10:18;8.88;;;3.00;;
43529;SDS011;55654;50.966;6.878;2023-08-06T12:12:47;7.55;;;2.65;;
43529;SDS011;55654;50.966;6.878;2023-08-06T12:15:16;7.70;;;2.40;;
43529;SDS011;55654;50.966;6.878;2023-08-06T12:17:44;5.00;;;2.78;;
43529;SDS011;55654;50.966;6.878;2023-08-06T12:20:13;9.00;;;2.60;;
43529;SDS011;55654;50.966;6.878;2023-08-06T12:22:39;6.88;;;2.17;;
43529;SDS011;55654;50.966;6.878;2023-08-06T12:25:06;5.93;;;1.80;;
43529;SDS011;55654;50.966;6.878;2023-08-06T12:27:37;5.82;;;2.17;;
43529;SDS011;55654;50.966;6.878;2023-08-06T12:30:05;5.82;;;1.50;;
43529;SDS011;55654;50.966;6.878;2023-08-06T12:32:31;6.35;;;1.55;;
43529;SDS011;55654;50.966;6.878;2023-08-06T12:35:01;5.63;;;2.17;;
43529;SDS011;55654;50.966;6.878;2023-08-06T12:37:27;6.13;;;2.25;;
43529;SDS011;55654;50.966;6.878;2023-08-06T12:39:55;11.73;;;2.60;;
43529;SDS011;55654;50.966;6.878;2023-08-06T12:42:21;10.35;;;2.72;;
43529;SDS011;55654;50.966;6.878;2023-08-06T12:44:50;7.20;;;2.72;;
43529;SDS011;55654;50.966;6.878;2023-08-06T12:47:16;7.28;;;2.83;;
43529;SDS011;55654;50.966;6.878;2023-08-06T12:49:43;6.15;;;3.40;;
43529;SDS011;55654;50.966;6.878;2023-08-06T12:52:09;11.00;;;3.30;;
43529;SDS011;55654;50.966;6.878;2023-08-06T12:54:42;5.07;;;2.70;;
43529;SDS011;55654;50.966;6.878;2023-08-06T12:57:08;12.40;;;3.42;;
43529;SDS011;55654;50.966;6.878;2023-08-06T12:59:34;8.18;;;2.35;;
43529;SDS011;55654;50.966;6.878;2023-08-06T13:02:01;6.50;;;2.08;;
43529;SDS011;55654;50.966;6.878;2023-08-06T13:04:32;7.40;;;2.50;;
43529;SDS011;55654;50.966;6.878;2023-08-06T13:07:00;7.18;;;1.95;;
43529;SDS011;55654;50.966;6.878;2023-08-06T13:09:26;9.43;;;3.00;;
43529;SDS011;55654;50.966;6.878;2023-08-06T13:11:52;6.00;;;2.25;;
43529;SDS011;55654;50.966;6.878;2023-08-06T13:14:18;6.53;;;2.88;;
43529;SDS011;55654;50.966;6.878;2023-08-06T13:16:44;6.10;;;2.55;;
43529;SDS011;55654;50.966;6.878;2023-08-06T13:19:13;6.30;;;2.58;;
43529;SDS011;55654;50.966;6.878;2023-08-06T13:24:15;7.50;;;2.40;;
43529;SDS011;55654;50.966;6.878;2023-08-06T13:26:41;5.85;;;2.10;;
43529;SDS011;55654;50.966;6.878;2023-08-06T13:29:07;13.77;;;3.30;;
43529;SDS011;55654;50.966;6.878;2023-08-06T13:31:33;14.70;;;3.83;;
43529;SDS011;55654;50.966;6.878;2023-08-06T13:34:04;20.67;;;4.72;;
43529;SDS011;55654;50.966;6.878;2023-08-06T13:36:33;18.23;;;4.78;;
43529;SDS011;55654;50.966;6.878;2023-08-06T13:39:02;26.15;;;5.88;;
43529;SDS011;55654;50.966;6.878;2023-08-06T13:41:28;9.77;;;4.93;;
43529;SDS011;55654;50.966;6.878;2023-08-06T13:43:54;14.13;;;5.15;;
43529;SDS011;55654;50.966;6.878;2023-08-06T13:46:20;9.98;;;5.50;;
43529;SDS011;55654;50.966;6.878;2023-08-06T13:48:46;10.63;;;5.70;;
43529;SDS011;55654;50.966;6.878;2023-08-06T13:51:18;9.50;;;5.75;;
43529;SDS011;55654;50.966;6.878;2023-08-06T13:53:44;9.40;;;4.97;;
43529;SDS011;55654;50.966;6.878;2023-08-06T13:56:10;8.93;;;5.97;;
43529;SDS011;55654;50.966;6.878;2023-08-06T13:58:37;11.30;;;6.38;;
43529;SDS011;55654;50.966;6.878;2023-08-06T14:01:05;13.25;;;7.10;;
43529;SDS011;55654;50.966;6.878;2023-08-06T14:03:31;12.38;;;8.90;;
43529;SDS011;55654;50.966;6.878;2023-08-06T14:05:57;15.80;;;7.88;;
43529;SDS011;55654;50.966;6.878;2023-08-06T14:08:24;17.38;;;6.68;;
43529;SDS011;55654;50.966;6.878;2023-08-06T14:10:50;11.35;;;5.05;;
43529;SDS011;55654;50.966;6.878;2023-08-06T14:13:16;10.27;;;3.47;;
43529;SDS011;55654;50.966;6.878;2023-08-06T14:15:43;8.90;;;2.45;;
43529;SDS011;55654;50.966;6.878;2023-08-06T14:18:11;4.68;;;2.38;;
43529;SDS011;55654;50.966;6.878;2023-08-06T14:20:37;8.95;;;2.80;;
43529;SDS011;55654;50.966;6.878;2023-08-06T14:23:06;5.57;;;2.10;;
43529;SDS011;55654;50.966;6.878;2023-08-06T14:25:35;12.25;;;2.83;;
43529;SDS011;55654;50.966;6.878;2023-08-06T14:28:01;8.13;;;1.77;;
43529;SDS011;55654;50.966;6.878;2023-08-06T14:30:27;5.80;;;1.85;;
43529;SDS011;55654;50.966;6.878;2023-08-06T14:32:55;2.85;;;1.33;;
43529;SDS011;55654;50.966;6.878;2023-08-06T14:35:25;9.00;;;1.60;;
43529;SDS011;55654;50.966;6.878;2023-08-06T14:37:51;8.05;;;1.60;;
43529;SDS011;55654;50.966;6.878;2023-08-06T14:40:19;6.25;;;1.90;;
43529;SDS011;55654;50.966;6.878;2023-08-06T14:42:45;11.70;;;2.33;;
43529;SDS011;55654;50.966;6.878;2023-08-06T14:45:14;7.43;;;1.52;;
43529;SDS011;55654;50.966;6.878;2023-08-06T14:47:40;5.85;;;1.58;;
43529;SDS011;55654;50.966;6.878;2023-08-06T14:50:06;6.50;;;1.58;;
43529;SDS011;55654;50.966;6.878;2023-08-06T14:52:32;7.97;;;2.22;;
43529;SDS011;55654;50.966;6.878;2023-08-06T14:54:59;5.82;;;1.50;;
43529;SDS011;55654;50.966;6.878;2023-08-06T14:57:27;5.22;;;1.42;;